sensor_id;sensor_type;location;lat;lon;timestamp;P1;durP1;ratioP1;P2;durP2;ratioP2
27558;SDS011;15002;52.028;5.670;2022-08-23T00:01:41;9.57;;;4.63;;
27558;SDS011;15002;52.028;5.670;2022-08-23T00:04:11;10.80;;;4.78;;
27558;SDS011;15002;52.028;5.670;2022-08-23T00:06:42;7.68;;;4.60;;
27558;SDS011;15002;52.028;5.670;2022-08-23T00:09:09;8.38;;;4.75;;
27558;SDS011;15002;52.028;5.670;2022-08-23T00:11:43;9.05;;;4.65;;
27558;SDS011;15002;52.028;5.670;2022-08-23T00:14:11;8.23;;;4.47;;
27558;SDS011;15002;52.028;5.670;2022-08-23T00:16:37;9.52;;;5.25;;
27558;SDS011;15002;52.028;5.670;2022-08-23T00:19:04;8.48;;;5.05;;
27558;SDS011;15002;52.028;5.670;2022-08-23T00:21:31;10.88;;;5.30;;
27558;SDS011;15002;52.028;5.670;2022-08-23T00:23:57;11.02;;;5.43;;
27558;SDS011;15002;52.028;5.670;2022-08-23T00:26:23;10.25;;;5.15;;
27558;SDS011;15002;52.028;5.670;2022-08-23T00:28:50;10.73;;;5.93;;
27558;SDS011;15002;52.028;5.670;2022-08-23T00:31:16;6.05;;;5.10;;
27558;SDS011;15002;52.028;5.670;2022-08-23T00:33:43;7.85;;;4.57;;
27558;SDS011;15002;52.028;5.670;2022-08-23T00:36:09;7.40;;;4.80;;
27558;SDS011;15002;52.028;5.670;2022-08-23T00:38:34;8.23;;;4.93;;
27558;SDS011;15002;52.028;5.670;2022-08-23T00:41:00;11.07;;;5.20;;
27558;SDS011;15002;52.028;5.670;2022-08-23T00:43:28;10.18;;;5.25;;
27558;SDS011;15002;52.028;5.670;2022-08-23T00:49:26;8.63;;;4.65;;
27558;SDS011;15002;52.028;5.670;2022-08-23T00:51:58;7.03;;;5.18;;
27558;SDS011;15002;52.028;5.670;2022-08-23T00:54:31;9.13;;;5.03;;
27558;SDS011;15002;52.028;5.670;2022-08-23T00:56:59;6.53;;;5.00;;
27558;SDS011;15002;52.028;5.670;2022-08-23T00:59:29;9.98;;;4.88;;
27558;SDS011;15002;52.028;5.670;2022-08-23T01:01:55;7.22;;;4.53;;
27558;SDS011;15002;52.028;5.670;2022-08-23T01:04:21;12.32;;;4.95;;
27558;SDS011;15002;52.028;5.670;2022-08-23T01:07:01;9.13;;;5.45;;
27558;SDS011;15002;52.028;5.670;2022-08-23T01:09:31;7.68;;;4.78;;
27558;SDS011;15002;52.028;5.670;2022-08-23T01:12:02;7.57;;;5.57;;
27558;SDS011;15002;52.028;5.670;2022-08-23T01:17:13;9.93;;;5.25;;
27558;SDS011;15002;52.028;5.670;2022-08-23T01:19:57;7.00;;;4.60;;
27558;SDS011;15002;52.028;5.670;2022-08-23T01:24:55;8.88;;;5.47;;
27558;SDS011;15002;52.028;5.670;2022-08-23T01:27:21;8.13;;;4.68;;
27558;SDS011;15002;52.028;5.670;2022-08-23T01:29:48;10.68;;;4.97;;
27558;SDS011;15002;52.028;5.670;2022-08-23T01:32:14;9.60;;;5.03;;
27558;SDS011;15002;52.028;5.670;2022-08-23T01:34:40;8.25;;;5.40;;
27558;SDS011;15002;52.028;5.670;2022-08-23T01:37:06;8.02;;;4.78;;
27558;SDS011;15002;52.028;5.670;2022-08-23T01:39:33;8.20;;;4.88;;
27558;SDS011;15002;52.028;5.670;2022-08-23T01:41:59;7.68;;;5.22;;
27558;SDS011;15002;52.028;5.670;2022-08-23T01:44:25;8.98;;;5.13;;
27558;SDS011;15002;52.028;5.670;2022-08-23T01:46:51;9.73;;;5.28;;
27558;SDS011;15002;52.028;5.670;2022-08-23T01:49:17;8.20;;;5.40;;
27558;SDS011;15002;52.028;5.670;2022-08-23T01:51:43;7.50;;;4.75;;
27558;SDS011;15002;52.028;5.670;2022-08-23T01:54:09;13.50;;;4.93;;
27558;SDS011;15002;52.028;5.670;2022-08-23T01:56:35;6.63;;;4.95;;
27558;SDS011;15002;52.028;5.670;2022-08-23T01:59:02;10.57;;;5.28;;
27558;SDS011;15002;52.028;5.670;2022-08-23T02:01:28;8.15;;;4.95;;
27558;SDS011;15002;52.028;5.670;2022-08-23T02:03:54;8.73;;;5.63;;
27558;SDS011;15002;52.028;5.670;2022-08-23T02:06:19;8.38;;;5.50;;
27558;SDS011;15002;52.028;5.670;2022-08-23T02:08:45;9.27;;;5.40;;
27558;SDS011;15002;52.028;5.670;2022-08-23T02:11:31;9.88;;;5.20;;
27558;SDS011;15002;52.028;5.670;2022-08-23T02:14:00;6.63;;;5.28;;
27558;SDS011;15002;52.028;5.670;2022-08-23T02:16:30;7.53;;;5.18;;
27558;SDS011;15002;52.028;5.670;2022-08-23T02:18:59;7.68;;;5.07;;
27558;SDS011;15002;52.028;5.670;2022-08-23T02:21:26;9.15;;;5.25;;
27558;SDS011;15002;52.028;5.670;2022-08-23T02:23:55;8.18;;;4.90;;
27558;SDS011;15002;52.028;5.670;2022-08-23T02:26:22;7.82;;;4.95;;
27558;SDS011;15002;52.028;5.670;2022-08-23T02:28:52;6.95;;;4.53;;
27558;SDS011;15002;52.028;5.670;2022-08-23T02:31:18;6.05;;;5.10;;
27558;SDS011;15002;52.028;5.670;2022-08-23T02:33:44;8.82;;;5.53;;
27558;SDS011;15002;52.028;5.670;2022-08-23T02:36:10;8.93;;;4.82;;
27558;SDS011;15002;52.028;5.670;2022-08-23T02:38:37;11.70;;;5.40;;
27558;SDS011;15002;52.028;5.670;2022-08-23T02:41:02;8.30;;;5.07;;
27558;SDS011;15002;52.028;5.670;2022-08-23T02:43:28;9.07;;;5.38;;
27558;SDS011;15002;52.028;5.670;2022-08-23T02:45:54;7.63;;;5.10;;
27558;SDS011;15002;52.028;5.670;2022-08-23T02:48:20;7.88;;;5.35;;
27558;SDS011;15002;52.028;5.670;2022-08-23T02:50:46;8.77;;;5.28;;
27558;SDS011;15002;52.028;5.670;2022-08-23T02:53:13;9.75;;;5.38;;
27558;SDS011;15002;52.028;5.670;2022-08-23T02:55:39;11.15;;;5.40;;
27558;SDS011;15002;52.028;5.670;2022-08-23T02:58:10;7.28;;;4.10;;
27558;SDS011;15002;52.028;5.670;2022-08-23T03:00:35;6.25;;;4.57;;
27558;SDS011;15002;52.028;5.670;2022-08-23T03:03:02;5.25;;;4.72;;
27558;SDS011;15002;52.028;5.670;2022-08-23T03:05:29;9.07;;;5.15;;
27558;SDS011;15002;52.028;5.670;2022-08-23T03:07:55;6.40;;;4.85;;
27558;SDS011;15002;52.028;5.670;2022-08-23T03:10:21;5.88;;;4.90;;
27558;SDS011;15002;52.028;5.670;2022-08-23T03:12:47;9.73;;;4.93;;
27558;SDS011;15002;52.028;5.670;2022-08-23T03:15:13;8.63;;;4.65;;
27558;SDS011;15002;52.028;5.670;2022-08-23T03:17:39;11.75;;;4.70;;
27558;SDS011;15002;52.028;5.670;2022-08-23T03:20:04;7.10;;;4.85;;
27558;SDS011;15002;52.028;5.670;2022-08-23T03:22:31;11.95;;;5.38;;
27558;SDS011;15002;52.028;5.670;2022-08-23T03:24:57;9.25;;;5.53;;
27558;SDS011;15002;52.028;5.670;2022-08-23T03:27:22;8.23;;;5.22;;
27558;SDS011;15002;52.028;5.670;2022-08-23T03:29:48;7.82;;;5.70;;
27558;SDS011;15002;52.028;5.670;2022-08-23T03:32:14;7.70;;;5.57;;
27558;SDS011;15002;52.028;5.670;2022-08-23T03:34:40;7.25;;;5.00;;
27558;SDS011;15002;52.028;5.670;2022-08-23T03:37:05;7.30;;;4.90;;
27558;SDS011;15002;52.028;5.670;2022-08-23T03:39:31;6.80;;;5.13;;
27558;SDS011;15002;52.028;5.670;2022-08-23T03:41:56;7.35;;;4.70;;
27558;SDS011;15002;52.028;5.670;2022-08-23T03:44:23;7.38;;;5.18;;
27558;SDS011;15002;52.028;5.670;2022-08-23T03:46:48;8.70;;;5.15;;
27558;SDS011;15002;52.028;5.670;2022-08-23T03:49:15;7.75;;;4.85;;
27558;SDS011;15002;52.028;5.670;2022-08-23T03:51:41;8.85;;;5.45;;
27558;SDS011;15002;52.028;5.670;2022-08-23T03:54:06;6.15;;;4.97;;
27558;SDS011;15002;52.028;5.670;2022-08-23T03:56:33;6.15;;;4.70;;
27558;SDS011;15002;52.028;5.670;2022-08-23T03:59:08;7.75;;;5.32;;
27558;SDS011;15002;52.028;5.670;2022-08-23T04:01:37;9.98;;;5.07;;
27558;SDS011;15002;52.028;5.670;2022-08-23T04:04:02;5.65;;;4.82;;
27558;SDS011;15002;52.028;5.670;2022-08-23T04:06:28;9.82;;;5.50;;
27558;SDS011;15002;52.028;5.670;2022-08-23T04:08:55;9.70;;;5.50;;
27558;SDS011;15002;52.028;5.670;2022-08-23T04:11:21;7.97;;;5.20;;
27558;SDS011;15002;52.028;5.670;2022-08-23T04:13:48;7.47;;;5.07;;
27558;SDS011;15002;52.028;5.670;2022-08-23T04:16:14;8.52;;;5.18;;
27558;SDS011;15002;52.028;5.670;2022-08-23T04:18:42;6.97;;;5.05;;
27558;SDS011;15002;52.028;5.670;2022-08-23T04:21:09;7.63;;;5.15;;
27558;SDS011;15002;52.028;5.670;2022-08-23T04:23:39;7.13;;;5.53;;
27558;SDS011;15002;52.028;5.670;2022-08-23T04:26:05;9.00;;;5.55;;
27558;SDS011;15002;52.028;5.670;2022-08-23T04:28:32;7.90;;;4.82;;
27558;SDS011;15002;52.028;5.670;2022-08-23T04:30:58;8.02;;;5.10;;
27558;SDS011;15002;52.028;5.670;2022-08-23T04:33:28;6.78;;;5.53;;
27558;SDS011;15002;52.028;5.670;2022-08-23T04:35:57;7.70;;;5.65;;
27558;SDS011;15002;52.028;5.670;2022-08-23T04:38:26;8.88;;;6.32;;
27558;SDS011;15002;52.028;5.670;2022-08-23T04:40:53;10.45;;;7.03;;
27558;SDS011;15002;52.028;5.670;2022-08-23T04:43:38;13.90;;;7.95;;
27558;SDS011;15002;52.028;5.670;2022-08-23T04:46:05;9.93;;;8.15;;
27558;SDS011;15002;52.028;5.670;2022-08-23T04:48:31;13.95;;;8.73;;
27558;SDS011;15002;52.028;5.670;2022-08-23T04:50:57;11.75;;;10.10;;
27558;SDS011;15002;52.028;5.670;2022-08-23T04:53:23;12.68;;;9.52;;
27558;SDS011;15002;52.028;5.670;2022-08-23T04:55:49;14.93;;;9.95;;
27558;SDS011;15002;52.028;5.670;2022-08-23T04:58:16;14.13;;;10.88;;
27558;SDS011;15002;52.028;5.670;2022-08-23T05:00:42;13.52;;;11.35;;
27558;SDS011;15002;52.028;5.670;2022-08-23T05:03:07;14.25;;;11.00;;
27558;SDS011;15002;52.028;5.670;2022-08-23T05:05:33;16.17;;;12.40;;
27558;SDS011;15002;52.028;5.670;2022-08-23T05:07:59;20.55;;;12.38;;
27558;SDS011;15002;52.028;5.670;2022-08-23T05:10:25;13.63;;;11.43;;
27558;SDS011;15002;52.028;5.670;2022-08-23T05:12:50;16.85;;;10.32;;
27558;SDS011;15002;52.028;5.670;2022-08-23T05:15:16;17.92;;;11.65;;
27558;SDS011;15002;52.028;5.670;2022-08-23T05:17:42;22.02;;;11.30;;
27558;SDS011;15002;52.028;5.670;2022-08-23T05:20:08;22.30;;;10.65;;
27558;SDS011;15002;52.028;5.670;2022-08-23T05:22:38;20.30;;;10.52;;
27558;SDS011;15002;52.028;5.670;2022-08-23T05:25:05;14.00;;;10.85;;
27558;SDS011;15002;52.028;5.670;2022-08-23T05:27:32;15.80;;;10.75;;
27558;SDS011;15002;52.028;5.670;2022-08-23T05:29:57;14.23;;;10.57;;
27558;SDS011;15002;52.028;5.670;2022-08-23T05:32:23;14.48;;;11.27;;
27558;SDS011;15002;52.028;5.670;2022-08-23T05:34:49;16.63;;;11.45;;
27558;SDS011;15002;52.028;5.670;2022-08-23T05:37:14;18.60;;;10.40;;
27558;SDS011;15002;52.028;5.670;2022-08-23T05:39:41;16.63;;;10.50;;
27558;SDS011;15002;52.028;5.670;2022-08-23T05:42:08;16.38;;;10.60;;
27558;SDS011;15002;52.028;5.670;2022-08-23T05:44:35;30.27;;;11.32;;
27558;SDS011;15002;52.028;5.670;2022-08-23T05:47:02;31.15;;;12.52;;
27558;SDS011;15002;52.028;5.670;2022-08-23T05:49:29;23.75;;;11.65;;
27558;SDS011;15002;52.028;5.670;2022-08-23T05:51:54;20.20;;;10.68;;
27558;SDS011;15002;52.028;5.670;2022-08-23T05:54:20;31.00;;;11.32;;
27558;SDS011;15002;52.028;5.670;2022-08-23T05:56:46;25.10;;;10.65;;
27558;SDS011;15002;52.028;5.670;2022-08-23T05:59:12;18.65;;;10.80;;
27558;SDS011;15002;52.028;5.670;2022-08-23T06:01:40;28.70;;;10.85;;
27558;SDS011;15002;52.028;5.670;2022-08-23T06:04:07;58.53;;;10.98;;
27558;SDS011;15002;52.028;5.670;2022-08-23T06:06:35;45.80;;;11.90;;
27558;SDS011;15002;52.028;5.670;2022-08-23T06:09:04;20.27;;;10.88;;
27558;SDS011;15002;52.028;5.670;2022-08-23T06:11:31;16.20;;;11.38;;
27558;SDS011;15002;52.028;5.670;2022-08-23T06:13:58;17.38;;;11.27;;
27558;SDS011;15002;52.028;5.670;2022-08-23T06:16:29;19.27;;;11.30;;
27558;SDS011;15002;52.028;5.670;2022-08-23T06:18:57;13.25;;;10.48;;
27558;SDS011;15002;52.028;5.670;2022-08-23T06:21:26;19.15;;;11.45;;
27558;SDS011;15002;52.028;5.670;2022-08-23T06:23:53;15.98;;;11.43;;
27558;SDS011;15002;52.028;5.670;2022-08-23T06:26:32;23.88;;;12.52;;
27558;SDS011;15002;52.028;5.670;2022-08-23T06:29:03;24.67;;;11.07;;
27558;SDS011;15002;52.028;5.670;2022-08-23T06:31:35;16.42;;;10.60;;
27558;SDS011;15002;52.028;5.670;2022-08-23T06:34:34;20.25;;;11.32;;
27558;SDS011;15002;52.028;5.670;2022-08-23T06:36:59;28.98;;;11.02;;
27558;SDS011;15002;52.028;5.670;2022-08-23T06:39:28;43.95;;;12.20;;
27558;SDS011;15002;52.028;5.670;2022-08-23T06:41:58;25.17;;;12.48;;
27558;SDS011;15002;52.028;5.670;2022-08-23T06:44:26;21.45;;;11.25;;
27558;SDS011;15002;52.028;5.670;2022-08-23T06:46:52;15.23;;;10.73;;
27558;SDS011;15002;52.028;5.670;2022-08-23T06:49:20;21.45;;;11.63;;
27558;SDS011;15002;52.028;5.670;2022-08-23T06:51:48;50.95;;;11.93;;
27558;SDS011;15002;52.028;5.670;2022-08-23T06:54:15;34.65;;;13.30;;
27558;SDS011;15002;52.028;5.670;2022-08-23T06:56:44;17.40;;;10.93;;
27558;SDS011;15002;52.028;5.670;2022-08-23T06:59:11;21.77;;;10.70;;
27558;SDS011;15002;52.028;5.670;2022-08-23T07:04:05;19.98;;;10.93;;
27558;SDS011;15002;52.028;5.670;2022-08-23T07:06:33;22.42;;;11.18;;
27558;SDS011;15002;52.028;5.670;2022-08-23T07:08:59;15.85;;;11.80;;
27558;SDS011;15002;52.028;5.670;2022-08-23T07:11:25;19.13;;;11.32;;
27558;SDS011;15002;52.028;5.670;2022-08-23T07:13:55;15.82;;;10.98;;
27558;SDS011;15002;52.028;5.670;2022-08-23T07:16:21;15.60;;;11.25;;
27558;SDS011;15002;52.028;5.670;2022-08-23T07:18:47;16.75;;;12.43;;
27558;SDS011;15002;52.028;5.670;2022-08-23T07:21:14;14.40;;;11.07;;
27558;SDS011;15002;52.028;5.670;2022-08-23T07:23:40;14.98;;;10.25;;
27558;SDS011;15002;52.028;5.670;2022-08-23T07:26:08;13.35;;;10.45;;
27558;SDS011;15002;52.028;5.670;2022-08-23T07:28:35;15.30;;;10.50;;
27558;SDS011;15002;52.028;5.670;2022-08-23T07:31:09;14.70;;;10.27;;
27558;SDS011;15002;52.028;5.670;2022-08-23T07:33:43;13.75;;;10.00;;
27558;SDS011;15002;52.028;5.670;2022-08-23T07:36:12;12.45;;;10.07;;
27558;SDS011;15002;52.028;5.670;2022-08-23T07:38:40;13.52;;;9.38;;
27558;SDS011;15002;52.028;5.670;2022-08-23T07:41:06;13.85;;;9.95;;
27558;SDS011;15002;52.028;5.670;2022-08-23T07:43:32;15.40;;;9.80;;
27558;SDS011;15002;52.028;5.670;2022-08-23T07:45:59;13.50;;;8.77;;
27558;SDS011;15002;52.028;5.670;2022-08-23T07:48:25;13.93;;;9.75;;
27558;SDS011;15002;52.028;5.670;2022-08-23T07:50:51;12.70;;;8.57;;
27558;SDS011;15002;52.028;5.670;2022-08-23T07:53:19;12.05;;;8.18;;
27558;SDS011;15002;52.028;5.670;2022-08-23T07:55:45;18.38;;;9.20;;
27558;SDS011;15002;52.028;5.670;2022-08-23T07:58:11;11.52;;;8.43;;
27558;SDS011;15002;52.028;5.670;2022-08-23T08:00:37;12.10;;;9.63;;
27558;SDS011;15002;52.028;5.670;2022-08-23T08:03:02;13.65;;;9.20;;
27558;SDS011;15002;52.028;5.670;2022-08-23T08:05:30;12.32;;;8.02;;
27558;SDS011;15002;52.028;5.670;2022-08-23T08:07:57;8.82;;;7.57;;
27558;SDS011;15002;52.028;5.670;2022-08-23T08:10:24;8.75;;;6.80;;
27558;SDS011;15002;52.028;5.670;2022-08-23T08:12:50;15.30;;;8.57;;
27558;SDS011;15002;52.028;5.670;2022-08-23T08:15:16;12.27;;;8.18;;
27558;SDS011;15002;52.028;5.670;2022-08-23T08:17:42;9.50;;;7.72;;
27558;SDS011;15002;52.028;5.670;2022-08-23T08:20:11;13.07;;;7.97;;
27558;SDS011;15002;52.028;5.670;2022-08-23T08:22:37;13.10;;;7.32;;
27558;SDS011;15002;52.028;5.670;2022-08-23T08:25:03;7.40;;;5.25;;
27558;SDS011;15002;52.028;5.670;2022-08-23T08:27:30;8.85;;;5.30;;
27558;SDS011;15002;52.028;5.670;2022-08-23T08:29:56;8.95;;;4.97;;
27558;SDS011;15002;52.028;5.670;2022-08-23T08:32:22;8.68;;;5.40;;
27558;SDS011;15002;52.028;5.670;2022-08-23T08:34:47;9.93;;;5.88;;
27558;SDS011;15002;52.028;5.670;2022-08-23T08:37:13;10.15;;;6.30;;
27558;SDS011;15002;52.028;5.670;2022-08-23T08:39:38;16.70;;;7.63;;
27558;SDS011;15002;52.028;5.670;2022-08-23T08:47:30;12.40;;;8.23;;
27558;SDS011;15002;52.028;5.670;2022-08-23T08:52:53;8.82;;;5.15;;
27558;SDS011;15002;52.028;5.670;2022-08-23T08:55:29;9.80;;;7.80;;
27558;SDS011;15002;52.028;5.670;2022-08-23T08:58:00;6.57;;;4.40;;
27558;SDS011;15002;52.028;5.670;2022-08-23T09:00:32;15.60;;;8.02;;
27558;SDS011;15002;52.028;5.670;2022-08-23T09:03:03;8.95;;;5.97;;
27558;SDS011;15002;52.028;5.670;2022-08-23T09:05:33;6.80;;;4.47;;
27558;SDS011;15002;52.028;5.670;2022-08-23T09:10:59;7.68;;;4.50;;
27558;SDS011;15002;52.028;5.670;2022-08-23T09:15:59;10.48;;;7.05;;
27558;SDS011;15002;52.028;5.670;2022-08-23T09:19:06;8.18;;;4.50;;
27558;SDS011;15002;52.028;5.670;2022-08-23T09:22:18;6.40;;;4.15;;
27558;SDS011;15002;52.028;5.670;2022-08-23T09:24:22;9.15;;;6.15;;
27558;SDS011;15002;52.028;5.670;2022-08-23T09:26:48;10.20;;;5.65;;
27558;SDS011;15002;52.028;5.670;2022-08-23T09:29:25;11.25;;;4.75;;
27558;SDS011;15002;52.028;5.670;2022-08-23T09:31:54;12.48;;;6.47;;
27558;SDS011;15002;52.028;5.670;2022-08-23T09:37:04;10.52;;;5.25;;
27558;SDS011;15002;52.028;5.670;2022-08-23T09:42:39;9.82;;;5.30;;
27558;SDS011;15002;52.028;5.670;2022-08-23T09:45:06;11.18;;;4.45;;
27558;SDS011;15002;52.028;5.670;2022-08-23T09:47:53;6.53;;;4.53;;
27558;SDS011;15002;52.028;5.670;2022-08-23T09:52:48;6.68;;;3.53;;
27558;SDS011;15002;52.028;5.670;2022-08-23T09:58:04;7.57;;;4.75;;
27558;SDS011;15002;52.028;5.670;2022-08-23T10:00:39;7.03;;;4.18;;
27558;SDS011;15002;52.028;5.670;2022-08-23T10:03:19;9.75;;;4.38;;
27558;SDS011;15002;52.028;5.670;2022-08-23T10:05:51;9.43;;;3.67;;
27558;SDS011;15002;52.028;5.670;2022-08-23T10:08:26;8.20;;;3.70;;
27558;SDS011;15002;52.028;5.670;2022-08-23T10:13:42;11.07;;;4.22;;
27558;SDS011;15002;52.028;5.670;2022-08-23T10:23:53;7.20;;;3.30;;
27558;SDS011;15002;52.028;5.670;2022-08-23T10:26:35;8.05;;;3.75;;
27558;SDS011;15002;52.028;5.670;2022-08-23T10:39:33;9.38;;;3.65;;
27558;SDS011;15002;52.028;5.670;2022-08-23T10:45:07;11.13;;;4.45;;
27558;SDS011;15002;52.028;5.670;2022-08-23T10:51:17;9.57;;;3.72;;
27558;SDS011;15002;52.028;5.670;2022-08-23T10:53:46;7.68;;;3.72;;
27558;SDS011;15002;52.028;5.670;2022-08-23T10:56:24;7.25;;;3.58;;
27558;SDS011;15002;52.028;5.670;2022-08-23T11:01:18;6.88;;;4.25;;
27558;SDS011;15002;52.028;5.670;2022-08-23T11:04:11;4.75;;;3.88;;
27558;SDS011;15002;52.028;5.670;2022-08-23T11:07:11;7.07;;;3.72;;
27558;SDS011;15002;52.028;5.670;2022-08-23T11:13:01;10.40;;;4.50;;
27558;SDS011;15002;52.028;5.670;2022-08-23T11:15:41;9.13;;;4.22;;
27558;SDS011;15002;52.028;5.670;2022-08-23T11:18:10;11.02;;;4.47;;
27558;SDS011;15002;52.028;5.670;2022-08-23T11:23:37;8.70;;;4.13;;
27558;SDS011;15002;52.028;5.670;2022-08-23T11:26:08;8.43;;;3.80;;
27558;SDS011;15002;52.028;5.670;2022-08-23T11:29:26;8.93;;;4.03;;
27558;SDS011;15002;52.028;5.670;2022-08-23T11:31:56;11.25;;;4.05;;
27558;SDS011;15002;52.028;5.670;2022-08-23T11:34:32;5.75;;;3.13;;
27558;SDS011;15002;52.028;5.670;2022-08-23T11:42:22;9.52;;;2.60;;
27558;SDS011;15002;52.028;5.670;2022-08-23T11:44:58;6.00;;;2.80;;
27558;SDS011;15002;52.028;5.670;2022-08-23T11:47:43;9.38;;;2.80;;
27558;SDS011;15002;52.028;5.670;2022-08-23T11:52:52;5.88;;;3.15;;
27558;SDS011;15002;52.028;5.670;2022-08-23T11:55:23;9.77;;;3.55;;
27558;SDS011;15002;52.028;5.670;2022-08-23T11:58:04;7.90;;;5.35;;
27558;SDS011;15002;52.028;5.670;2022-08-23T12:06:34;11.32;;;4.03;;
27558;SDS011;15002;52.028;5.670;2022-08-23T12:09:12;6.55;;;3.40;;
27558;SDS011;15002;52.028;5.670;2022-08-23T12:19:42;8.70;;;3.33;;
27558;SDS011;15002;52.028;5.670;2022-08-23T12:22:14;7.20;;;3.97;;
27558;SDS011;15002;52.028;5.670;2022-08-23T12:24:45;5.95;;;3.40;;
27558;SDS011;15002;52.028;5.670;2022-08-23T12:34:59;4.97;;;3.10;;
27558;SDS011;15002;52.028;5.670;2022-08-23T12:37:52;5.63;;;3.28;;
27558;SDS011;15002;52.028;5.670;2022-08-23T12:40:41;7.97;;;3.22;;
27558;SDS011;15002;52.028;5.670;2022-08-23T12:45:41;12.75;;;3.80;;
27558;SDS011;15002;52.028;5.670;2022-08-23T12:48:14;5.80;;;3.00;;
27558;SDS011;15002;52.028;5.670;2022-08-23T12:50:50;10.48;;;3.28;;
27558;SDS011;15002;52.028;5.670;2022-08-23T12:53:29;6.20;;;3.03;;
27558;SDS011;15002;52.028;5.670;2022-08-23T12:56:05;8.35;;;3.08;;
27558;SDS011;15002;52.028;5.670;2022-08-23T12:58:34;7.07;;;3.10;;
27558;SDS011;15002;52.028;5.670;2022-08-23T13:01:04;6.63;;;3.27;;
27558;SDS011;15002;52.028;5.670;2022-08-23T13:03:33;6.47;;;2.85;;
27558;SDS011;15002;52.028;5.670;2022-08-23T13:06:08;6.90;;;3.08;;
27558;SDS011;15002;52.028;5.670;2022-08-23T13:08:38;5.65;;;2.97;;
27558;SDS011;15002;52.028;5.670;2022-08-23T13:11:17;5.63;;;2.95;;
27558;SDS011;15002;52.028;5.670;2022-08-23T13:13:44;8.32;;;3.08;;
27558;SDS011;15002;52.028;5.670;2022-08-23T13:16:22;6.78;;;2.90;;
27558;SDS011;15002;52.028;5.670;2022-08-23T13:19:26;4.90;;;2.28;;
27558;SDS011;15002;52.028;5.670;2022-08-23T13:27:33;5.00;;;2.60;;
27558;SDS011;15002;52.028;5.670;2022-08-23T13:32:50;4.63;;;1.97;;
27558;SDS011;15002;52.028;5.670;2022-08-23T13:43:21;5.03;;;1.95;;
27558;SDS011;15002;52.028;5.670;2022-08-23T13:45:53;4.07;;;2.00;;
27558;SDS011;15002;52.028;5.670;2022-08-23T13:48:24;3.75;;;1.88;;
27558;SDS011;15002;52.028;5.670;2022-08-23T13:51:15;5.40;;;1.90;;
27558;SDS011;15002;52.028;5.670;2022-08-23T13:53:59;9.13;;;2.17;;
27558;SDS011;15002;52.028;5.670;2022-08-23T13:56:28;4.55;;;2.10;;
27558;SDS011;15002;52.028;5.670;2022-08-23T13:58:57;5.07;;;2.08;;
27558;SDS011;15002;52.028;5.670;2022-08-23T14:01:25;8.80;;;3.00;;
27558;SDS011;15002;52.028;5.670;2022-08-23T14:03:51;9.57;;;2.20;;
27558;SDS011;15002;52.028;5.670;2022-08-23T14:06:18;6.85;;;2.08;;
27558;SDS011;15002;52.028;5.670;2022-08-23T14:08:44;5.05;;;2.03;;
27558;SDS011;15002;52.028;5.670;2022-08-23T14:11:11;2.00;;;1.80;;
27558;SDS011;15002;52.028;5.670;2022-08-23T14:13:40;13.65;;;2.70;;
27558;SDS011;15002;52.028;5.670;2022-08-23T14:16:09;6.25;;;1.83;;
27558;SDS011;15002;52.028;5.670;2022-08-23T14:21:05;9.00;;;3.22;;
27558;SDS011;15002;52.028;5.670;2022-08-23T14:23:30;8.95;;;2.40;;
27558;SDS011;15002;52.028;5.670;2022-08-23T14:25:57;7.57;;;2.42;;
27558;SDS011;15002;52.028;5.670;2022-08-23T14:28:24;7.78;;;2.60;;
27558;SDS011;15002;52.028;5.670;2022-08-23T14:30:52;4.28;;;2.30;;
27558;SDS011;15002;52.028;5.670;2022-08-23T14:33:17;4.35;;;2.40;;
27558;SDS011;15002;52.028;5.670;2022-08-23T14:35:45;5.28;;;2.50;;
27558;SDS011;15002;52.028;5.670;2022-08-23T14:38:11;4.38;;;2.17;;
27558;SDS011;15002;52.028;5.670;2022-08-23T14:40:39;3.03;;;2.30;;
27558;SDS011;15002;52.028;5.670;2022-08-23T14:43:13;3.25;;;1.90;;
27558;SDS011;15002;52.028;5.670;2022-08-23T14:45:39;4.70;;;1.88;;
27558;SDS011;15002;52.028;5.670;2022-08-23T14:48:05;4.78;;;1.90;;
27558;SDS011;15002;52.028;5.670;2022-08-23T14:50:30;4.32;;;2.08;;
27558;SDS011;15002;52.028;5.670;2022-08-23T14:52:56;4.30;;;2.25;;
27558;SDS011;15002;52.028;5.670;2022-08-23T14:55:22;4.15;;;2.05;;
27558;SDS011;15002;52.028;5.670;2022-08-23T14:57:47;6.25;;;2.20;;
27558;SDS011;15002;52.028;5.670;2022-08-23T15:00:15;3.92;;;2.60;;
27558;SDS011;15002;52.028;5.670;2022-08-23T15:02:42;7.88;;;2.20;;
27558;SDS011;15002;52.028;5.670;2022-08-23T15:05:10;5.03;;;2.47;;
27558;SDS011;15002;52.028;5.670;2022-08-23T15:07:37;4.82;;;2.75;;
27558;SDS011;15002;52.028;5.670;2022-08-23T15:10:03;6.78;;;2.30;;
27558;SDS011;15002;52.028;5.670;2022-08-23T15:12:29;6.45;;;2.40;;
27558;SDS011;15002;52.028;5.670;2022-08-23T15:14:55;5.68;;;2.30;;
27558;SDS011;15002;52.028;5.670;2022-08-23T15:17:20;4.22;;;2.63;;
27558;SDS011;15002;52.028;5.670;2022-08-23T15:19:46;6.10;;;2.10;;
27558;SDS011;15002;52.028;5.670;2022-08-23T15:22:12;5.10;;;2.20;;
27558;SDS011;15002;52.028;5.670;2022-08-23T15:24:37;3.03;;;1.90;;
27558;SDS011;15002;52.028;5.670;2022-08-23T15:27:04;3.05;;;2.25;;
27558;SDS011;15002;52.028;5.670;2022-08-23T15:29:31;4.32;;;2.10;;
27558;SDS011;15002;52.028;5.670;2022-08-23T15:31:57;6.28;;;2.47;;
27558;SDS011;15002;52.028;5.670;2022-08-23T15:34:22;3.80;;;2.10;;
27558;SDS011;15002;52.028;5.670;2022-08-23T15:36:48;5.63;;;2.30;;
27558;SDS011;15002;52.028;5.670;2022-08-23T15:39:14;6.20;;;2.22;;
27558;SDS011;15002;52.028;5.670;2022-08-23T15:41:40;7.88;;;2.40;;
27558;SDS011;15002;52.028;5.670;2022-08-23T15:44:06;6.95;;;3.00;;
27558;SDS011;15002;52.028;5.670;2022-08-23T15:46:32;3.63;;;2.20;;
27558;SDS011;15002;52.028;5.670;2022-08-23T15:49:02;6.13;;;2.60;;
27558;SDS011;15002;52.028;5.670;2022-08-23T15:51:34;5.97;;;2.47;;
27558;SDS011;15002;52.028;5.670;2022-08-23T15:54:01;5.20;;;2.25;;
27558;SDS011;15002;52.028;5.670;2022-08-23T15:56:28;7.22;;;2.67;;
27558;SDS011;15002;52.028;5.670;2022-08-23T15:59:00;4.60;;;2.50;;
27558;SDS011;15002;52.028;5.670;2022-08-23T16:01:26;4.88;;;2.10;;
27558;SDS011;15002;52.028;5.670;2022-08-23T16:03:57;4.18;;;2.03;;
27558;SDS011;15002;52.028;5.670;2022-08-23T16:06:23;3.67;;;1.92;;
27558;SDS011;15002;52.028;5.670;2022-08-23T16:08:50;8.10;;;2.40;;
27558;SDS011;15002;52.028;5.670;2022-08-23T16:11:17;5.45;;;2.05;;
27558;SDS011;15002;52.028;5.670;2022-08-23T16:13:44;3.25;;;2.00;;
27558;SDS011;15002;52.028;5.670;2022-08-23T16:16:15;4.85;;;2.30;;
27558;SDS011;15002;52.028;5.670;2022-08-23T16:18:47;6.40;;;2.28;;
27558;SDS011;15002;52.028;5.670;2022-08-23T16:21:14;5.07;;;2.20;;
27558;SDS011;15002;52.028;5.670;2022-08-23T16:23:41;3.28;;;2.20;;
27558;SDS011;15002;52.028;5.670;2022-08-23T16:26:27;4.88;;;1.92;;
27558;SDS011;15002;52.028;5.670;2022-08-23T16:28:55;6.32;;;1.95;;
27558;SDS011;15002;52.028;5.670;2022-08-23T16:31:22;3.25;;;2.22;;
27558;SDS011;15002;52.028;5.670;2022-08-23T16:33:53;4.80;;;1.65;;
27558;SDS011;15002;52.028;5.670;2022-08-23T16:36:22;10.38;;;2.60;;
27558;SDS011;15002;52.028;5.670;2022-08-23T16:38:49;4.05;;;2.05;;
27558;SDS011;15002;52.028;5.670;2022-08-23T16:41:15;2.45;;;1.63;;
27558;SDS011;15002;52.028;5.670;2022-08-23T16:43:41;4.25;;;2.00;;
27558;SDS011;15002;52.028;5.670;2022-08-23T16:46:07;3.67;;;2.75;;
27558;SDS011;15002;52.028;5.670;2022-08-23T16:48:34;4.68;;;2.72;;
27558;SDS011;15002;52.028;5.670;2022-08-23T16:50:59;8.90;;;2.50;;
27558;SDS011;15002;52.028;5.670;2022-08-23T16:53:25;5.50;;;2.30;;
27558;SDS011;15002;52.028;5.670;2022-08-23T16:55:51;3.80;;;2.20;;